Time;durP1;ratioP1;P1;durP2;ratioP2;P2;SDS_P1;SDS_P2;PMS_P1;PMS_P2;Temp;Humidity;BMP_temperature;BMP_pressure;BME280_temperature;BME280_humidity;BME280_pressure;Samples;Min_cycle;Max_cycle;Signal;HPM_P1;HPM_P2
2021/11/17 02:27:36;;;;;;;4.60;3.78;;;;;;;;;;4205101;34;20089;-61
2021/11/17 02:30:08;;;;;;;4.75;4.20;;;;;;;;;;4205034;34;20136;-61
2021/11/17 02:32:42;;;;;;;5.70;4.28;;;;;;;;;;4192059;34;20118;-61
2021/11/17 02:35:29;;;;;;;5.03;4.45;;;;;;;;;;4204846;34;20210;-61
2021/11/17 02:38:23;;;;;;;6.78;4.70;;;;;;;;;;4192216;34;20110;-61
2021/11/17 02:41:10;;;;;;;6.12;5.00;;;;;;;;;;4204821;34;20206;-61
2021/11/17 02:44:01;;;;;;;8.95;5.87;;;;;;;;;;4204922;34;20133;-60
2021/11/17 02:46:54;;;;;;;5.95;5.35;;;;;;;;;;4192015;34;20470;-58
2021/11/17 02:49:42;;;;;;;6.55;4.85;;;;;;;;;;4204839;34;20140;-60
2021/11/17 02:52:23;;;;;;;10.20;5.12;;;;;;;;;;4205103;34;20121;-59
2021/11/17 02:55:13;;;;;;;7.12;5.62;;;;;;;;;;4204594;34;20189;-59
2021/11/17 02:57:45;;;;;;;9.85;5.87;;;;;;;;;;4204857;34;20197;-62
2021/11/17 03:00:21;;;;;;;5.57;4.97;;;;;;;;;;4204764;34;20128;-61
2021/11/17 03:02:56;;;;;;;6.72;5.12;;;;;;;;;;4204872;34;20209;-62
2021/11/17 03:05:39;;;;;;;5.45;4.90;;;;;;;;;;4204700;34;20197;-62
2021/11/17 03:08:37;;;;;;;7.50;5.03;;;;;;;;;;4190916;34;20109;-62
2021/11/17 03:11:15;;;;;;;6.20;4.85;;;;;;;;;;4190824;34;20121;-61
2021/11/17 03:14:11;;;;;;;5.93;4.70;;;;;;;;;;4191071;34;20113;-61
2021/11/17 03:16:55;;;;;;;6.45;5.57;;;;;;;;;;4190821;34;20129;-63
2021/11/17 03:19:45;;;;;;;6.00;5.30;;;;;;;;;;4190577;34;20109;-63
2021/11/17 03:22:32;;;;;;;6.53;5.55;;;;;;;;;;4190820;34;20222;-62
2021/11/17 03:25:10;;;;;;;12.23;7.15;;;;;;;;;;4190812;34;20102;-62
2021/11/17 03:27:51;;;;;;;8.00;5.75;;;;;;;;;;4190670;34;20554;-67
2021/11/17 03:30:26;;;;;;;8.10;5.60;;;;;;;;;;4190554;34;20124;-65
2021/11/17 03:32:58;;;;;;;10.90;6.43;;;;;;;;;;4190660;34;20160;-61
2021/11/17 03:35:30;;;;;;;8.63;6.12;;;;;;;;;;4189773;34;20121;-62
2021/11/17 03:38:22;;;;;;;9.10;5.72;;;;;;;;;;4190706;34;20249;-61
2021/11/17 03:41:06;;;;;;;8.40;6.20;;;;;;;;;;4190440;34;20118;-61
2021/11/17 03:44:00;;;;;;;9.50;7.10;;;;;;;;;;4190448;34;20098;-62
2021/11/17 03:46:32;;;;;;;12.10;6.90;;;;;;;;;;4190552;34;20208;-65
2021/11/17 03:49:14;;;;;;;12.63;7.90;;;;;;;;;;4190569;34;20132;-64
2021/11/17 03:52:15;;;;;;;14.90;9.30;;;;;;;;;;4190441;34;20098;-62
2021/11/17 03:54:54;;;;;;;17.10;9.35;;;;;;;;;;4174245;34;20302;-63
2021/11/17 03:57:24;;;;;;;17.73;9.50;;;;;;;;;;4190674;34;20197;-62
2021/11/17 04:00:21;;;;;;;22.08;11.10;;;;;;;;;;4177408;34;20558;-60
2021/11/17 04:03:34;;;;;;;16.10;9.45;;;;;;;;;;4190290;34;20110;-63
2021/11/17 04:06:11;;;;;;;13.13;7.65;;;;;;;;;;4183560;34;20130;-62
2021/11/17 04:09:10;;;;;;;10.57;7.22;;;;;;;;;;4204298;34;20201;-62
2021/11/17 04:11:54;;;;;;;9.60;6.40;;;;;;;;;;4201404;34;20177;-63
2021/11/17 04:14:35;;;;;;;9.35;5.75;;;;;;;;;;4204007;34;20707;-62
2021/11/17 04:17:15;;;;;;;7.25;4.65;;;;;;;;;;4192076;34;20118;-62
2021/11/17 04:19:49;;;;;;;6.87;5.12;;;;;;;;;;4203995;34;20122;-63
2021/11/17 04:22:42;;;;;;;6.75;5.03;;;;;;;;;;4203969;34;20571;-62
2021/11/17 04:25:23;;;;;;;5.40;4.70;;;;;;;;;;4203796;34;20527;-63
2021/11/17 04:27:58;;;;;;;8.02;5.18;;;;;;;;;;4203988;34;20121;-62
2021/11/17 04:30:44;;;;;;;6.60;4.60;;;;;;;;;;4203860;34;20128;-62
2021/11/17 04:33:58;;;;;;;6.25;5.35;;;;;;;;;;4203720;34;20082;-62
2021/11/17 04:36:33;;;;;;;7.30;5.55;;;;;;;;;;4165407;34;20131;-62
2021/11/17 04:39:11;;;;;;;7.15;5.65;;;;;;;;;;4203727;34;20120;-62
2021/11/17 04:41:53;;;;;;;8.32;5.68;;;;;;;;;;4203699;34;20197;-61
2021/11/17 04:44:57;;;;;;;5.62;5.00;;;;;;;;;;4203566;34;20189;-62
2021/11/17 04:47:41;;;;;;;6.25;5.37;;;;;;;;;;4204583;34;20570;-62
2021/11/17 04:50:17;;;;;;;9.32;5.28;;;;;;;;;;4205863;34;20217;-62
2021/11/17 04:52:51;;;;;;;6.50;4.97;;;;;;;;;;4203635;34;20212;-62
2021/11/17 04:55:37;;;;;;;5.50;4.97;;;;;;;;;;4190602;34;20630;-62
2021/11/17 04:58:21;;;;;;;6.10;5.20;;;;;;;;;;4203863;34;20198;-62
2021/11/17 05:01:22;;;;;;;7.45;5.12;;;;;;;;;;4190703;34;20126;-62
2021/11/17 05:04:19;;;;;;;7.80;5.45;;;;;;;;;;4160233;34;20671;-62
2021/11/17 05:06:51;;;;;;;6.15;5.15;;;;;;;;;;4205216;34;20090;-61
2021/11/17 05:09:52;;;;;;;5.47;4.85;;;;;;;;;;4205650;34;20110;-61
2021/11/17 05:12:33;;;;;;;8.50;5.55;;;;;;;;;;4191688;34;20474;-62
2021/11/17 05:15:21;;;;;;;7.65;5.00;;;;;;;;;;4205712;34;20146;-61
2021/11/17 05:18:02;;;;;;;8.40;4.95;;;;;;;;;;4205820;34;20208;-61
2021/11/17 05:20:40;;;;;;;6.70;5.15;;;;;;;;;;4205653;34;20105;-62
2021/11/17 05:23:15;;;;;;;8.55;5.93;;;;;;;;;;4205532;34;20105;-61
2021/11/17 05:25:53;;;;;;;14.20;7.78;;;;;;;;;;4205508;34;20125;-62
2021/11/17 05:28:21;;;;;;;13.68;7.78;;;;;;;;;;4205451;34;20110;-62
2021/11/17 05:31:07;;;;;;;16.50;8.45;;;;;;;;;;4192441;34;20231;-61
2021/11/17 05:33:42;;;;;;;;;;;;;;;;;;4205578;34;20185;-61
2021/11/17 05:36:14;;;;;;;14.73;8.45;;;;;;;;;;4205360;34;20005;-62
2021/11/17 05:38:58;;;;;;;14.65;8.40;;;;;;;;;;4205473;34;20118;-61
2021/11/17 05:41:39;;;;;;;14.93;9.35;;;;;;;;;;4205269;34;20114;-61
2021/11/17 05:44:23;;;;;;;13.45;7.60;;;;;;;;;;4205150;34;20188;-61
2021/11/17 05:47:07;;;;;;;12.75;7.28;;;;;;;;;;4205323;34;20116;-61
2021/11/17 05:49:52;;;;;;;10.65;6.90;;;;;;;;;;4205205;34;20522;-61
2021/11/17 05:52:56;;;;;;;9.95;6.22;;;;;;;;;;4205236;34;20526;-60
2021/11/17 05:55:43;;;;;;;8.55;6.28;;;;;;;;;;4205247;34;20217;-60
2021/11/17 05:58:28;;;;;;;7.97;6.43;;;;;;;;;;4204666;34;20230;-60
2021/11/17 06:01:03;;;;;;;8.70;6.40;;;;;;;;;;4192228;34;20208;-60
2021/11/17 06:03:54;;;;;;;11.05;6.40;;;;;;;;;;4205146;34;20091;-61
2021/11/17 06:06:22;;;;;;;10.90;7.10;;;;;;;;;;4204976;34;20114;-61
2021/11/17 06:08:48;;;;;;;13.18;7.85;;;;;;;;;;4205013;34;20731;-61
2021/11/17 06:11:14;;;;;;;14.18;8.18;;;;;;;;;;4205010;34;20129;-62
2021/11/17 06:13:40;;;;;;;13.55;8.20;;;;;;;;;;4192161;34;20217;-62
2021/11/17 06:16:06;;;;;;;14.65;8.65;;;;;;;;;;4204981;34;20729;-62
2021/11/17 06:18:32;;;;;;;15.85;8.70;;;;;;;;;;4204865;34;20533;-62
2021/11/17 06:20:58;;;;;;;15.27;8.82;;;;;;;;;;4192167;34;20101;-63
2021/11/17 06:23:30;;;;;;;16.23;9.48;;;;;;;;;;4204968;34;20230;-62
2021/11/17 06:25:56;;;;;;;17.25;10.32;;;;;;;;;;4192238;34;20108;-61
2021/11/17 06:28:26;;;;;;;17.77;10.30;;;;;;;;;;4204832;34;20141;-61
2021/11/17 06:30:53;;;;;;;17.58;10.07;;;;;;;;;;4204927;34;20422;-63
2021/11/17 06:33:19;;;;;;;16.55;10.68;;;;;;;;;;4180745;34;20128;-62
2021/11/17 06:35:45;;;;;;;18.15;10.25;;;;;;;;;;4204852;34;20206;-63
2021/11/17 06:38:11;;;;;;;14.55;9.13;;;;;;;;;;4204722;34;20118;-62
2021/11/17 06:40:41;;;;;;;13.15;9.02;;;;;;;;;;4204992;34;20097;-63
2021/11/17 06:43:08;;;;;;;12.10;7.75;;;;;;;;;;4192273;34;20189;-62
2021/11/17 06:45:36;;;;;;;13.93;8.05;;;;;;;;;;4204746;34;20113;-62
2021/11/17 06:48:02;;;;;;;11.63;7.70;;;;;;;;;;4204733;34;20205;-62
2021/11/17 06:50:28;;;;;;;12.88;8.20;;;;;;;;;;4204951;34;20136;-62
2021/11/17 06:52:54;;;;;;;15.63;8.57;;;;;;;;;;4204902;34;20110;-61
2021/11/17 06:55:20;;;;;;;10.85;7.97;;;;;;;;;;4204712;34;20124;-61
2021/11/17 06:57:46;;;;;;;12.25;7.87;;;;;;;;;;4204759;34;20133;-62
2021/11/17 07:00:19;;;;;;;13.52;8.35;;;;;;;;;;4204684;34;20089;-61
2021/11/17 07:02:45;;;;;;;12.88;7.53;;;;;;;;;;4204509;34;20116;-62
2021/11/17 07:05:11;;;;;;;10.95;7.40;;;;;;;;;;4204541;34;20137;-61
2021/11/17 07:07:37;;;;;;;8.93;6.87;;;;;;;;;;4204601;34;20098;-61
2021/11/17 07:10:04;;;;;;;7.80;6.22;;;;;;;;;;4204514;34;20196;-61
2021/11/17 07:12:30;;;;;;;9.68;6.00;;;;;;;;;;4204631;34;20117;-61
2021/11/17 07:14:56;;;;;;;6.68;5.80;;;;;;;;;;4204468;34;20121;-61
2021/11/17 07:17:22;;;;;;;8.20;6.30;;;;;;;;;;4204549;34;20708;-60
2021/11/17 07:19:48;;;;;;;9.02;6.37;;;;;;;;;;4204393;34;20126;-61
2021/11/17 07:22:14;;;;;;;6.03;5.30;;;;;;;;;;4204490;34;20113;-61
2021/11/17 07:24:40;;;;;;;7.87;5.75;;;;;;;;;;4204202;34;20117;-60
2021/11/17 07:27:07;;;;;;;8.13;5.80;;;;;;;;;;4204767;34;20123;-61
2021/11/17 07:29:33;;;;;;;7.32;5.55;;;;;;;;;;4204264;34;20111;-61
2021/11/17 07:31:59;;;;;;;6.50;5.80;;;;;;;;;;4204206;34;20634;-61
2021/11/17 07:34:25;;;;;;;9.88;6.55;;;;;;;;;;4204275;34;20116;-62
2021/11/17 07:36:51;;;;;;;6.40;5.72;;;;;;;;;;4204510;34;20093;-59
2021/11/17 07:39:17;;;;;;;6.80;5.30;;;;;;;;;;4191307;34;20193;-59
2021/11/17 07:41:45;;;;;;;6.45;5.62;;;;;;;;;;4204180;34;20114;-59
2021/11/17 07:44:14;;;;;;;7.18;5.90;;;;;;;;;;4204299;34;20118;-60
2021/11/17 07:46:40;;;;;;;7.47;5.65;;;;;;;;;;4204506;34;20129;-61
2021/11/17 07:49:06;;;;;;;6.75;5.22;;;;;;;;;;4204137;34;20113;-61
2021/11/17 07:51:32;;;;;;;5.65;5.05;;;;;;;;;;4204166;34;20187;-61
2021/11/17 07:53:57;;;;;;;5.15;3.90;;;;;;;;;;4204112;34;20177;-61
2021/11/17 07:56:23;;;;;;;4.75;4.28;;;;;;;;;;4204180;34;20129;-61
2021/11/17 07:58:49;;;;;;;7.97;6.80;;;;;;;;;;4191035;34;20202;-61
2021/11/17 08:01:15;;;;;;;4.62;4.18;;;;;;;;;;4204044;34;20129;-61
2021/11/17 08:03:42;;;;;;;5.80;4.05;;;;;;;;;;4176199;34;20137;-61
2021/11/17 08:06:10;;;;;;;4.68;4.18;;;;;;;;;;4189657;34;20193;-60
2021/11/17 08:08:36;;;;;;;5.30;3.90;;;;;;;;;;4202892;34;20152;-60
2021/11/17 08:11:02;;;;;;;5.80;4.20;;;;;;;;;;4202216;34;20553;-60
2021/11/17 08:13:28;;;;;;;5.18;4.55;;;;;;;;;;4191066;34;20106;-61
2021/11/17 08:15:54;;;;;;;4.57;3.83;;;;;;;;;;4203520;34;20794;-60
2021/11/17 08:18:20;;;;;;;5.72;3.85;;;;;;;;;;4202722;34;20110;-60
2021/11/17 08:20:46;;;;;;;4.82;3.92;;;;;;;;;;4203134;34;20226;-60
2021/11/17 08:23:11;;;;;;;4.95;3.60;;;;;;;;;;4205163;34;20222;-61
2021/11/17 08:25:38;;;;;;;5.47;3.90;;;;;;;;;;4205340;34;20216;-60
2021/11/17 08:28:05;;;;;;;4.70;3.67;;;;;;;;;;4205479;34;20204;-61
2021/11/17 08:30:32;;;;;;;5.37;4.18;;;;;;;;;;4205637;34;20121;-59
2021/11/17 08:32:58;;;;;;;5.40;4.22;;;;;;;;;;4192677;34;20133;-59
2021/11/17 08:35:25;;;;;;;5.50;4.00;;;;;;;;;;4205704;34;20527;-61
2021/11/17 08:37:53;;;;;;;4.65;3.80;;;;;;;;;;4205469;34;20153;-61
2021/11/17 08:40:28;;;;;;;5.53;4.03;;;;;;;;;;4205973;34;20106;-61
2021/11/17 08:42:54;;;;;;;4.32;3.67;;;;;;;;;;4206022;34;20176;-62
2021/11/17 08:45:20;;;;;;;5.03;3.72;;;;;;;;;;4205979;34;20117;-61
2021/11/17 08:47:46;;;;;;;4.28;3.45;;;;;;;;;;4205646;34;20515;-61
2021/11/17 08:50:14;;;;;;;4.87;4.28;;;;;;;;;;4205844;34;20090;-61
2021/11/17 08:52:40;;;;;;;3.95;3.28;;;;;;;;;;4205667;34;20102;-63
2021/11/17 08:55:07;;;;;;;4.07;3.67;;;;;;;;;;4205784;34;20593;-62
2021/11/17 08:57:33;;;;;;;4.90;4.03;;;;;;;;;;4203761;34;20121;-61
2021/11/17 09:00:02;;;;;;;5.03;3.87;;;;;;;;;;4204298;34;20133;-59
2021/11/17 09:02:28;;;;;;;5.35;4.15;;;;;;;;;;4204019;34;20510;-61
2021/11/17 09:04:54;;;;;;;5.15;4.00;;;;;;;;;;4167975;34;20129;-62
2021/11/17 09:07:19;;;;;;;6.40;4.68;;;;;;;;;;4204605;34;20215;-60
2021/11/17 09:09:45;;;;;;;4.60;4.10;;;;;;;;;;4205118;34;20184;-61
2021/11/17 09:12:11;;;;;;;4.53;4.12;;;;;;;;;;4205422;34;20552;-62
2021/11/17 09:14:38;;;;;;;6.22;4.18;;;;;;;;;;4205523;34;20145;-61
2021/11/17 09:17:04;;;;;;;4.55;3.40;;;;;;;;;;4205664;34;20529;-61
2021/11/17 09:19:30;;;;;;;3.67;3.25;;;;;;;;;;4205485;34;20124;-61
2021/11/17 09:21:56;;;;;;;4.03;3.62;;;;;;;;;;4205509;34;20538;-61
2021/11/17 09:24:22;;;;;;;4.00;3.45;;;;;;;;;;4205217;34;20097;-61
2021/11/17 09:26:49;;;;;;;4.78;3.92;;;;;;;;;;4205225;34;20502;-60
2021/11/17 09:29:16;;;;;;;4.30;3.62;;;;;;;;;;4205290;34;20114;-59
2021/11/17 09:31:42;;;;;;;7.78;3.28;;;;;;;;;;4205321;34;20683;-60
2021/11/17 09:34:08;;;;;;;3.80;3.40;;;;;;;;;;4204560;34;20124;-60
2021/11/17 09:36:34;;;;;;;4.75;3.20;;;;;;;;;;4205542;34;20104;-60
2021/11/17 09:39:00;;;;;;;4.00;3.20;;;;;;;;;;4192525;34;20134;-60
2021/11/17 09:41:31;;;;;;;4.15;3.25;;;;;;;;;;4205165;34;20145;-60
2021/11/17 09:43:59;;;;;;;4.95;3.53;;;;;;;;;;4181037;34;20124;-61
2021/11/17 09:46:26;;;;;;;3.65;2.95;;;;;;;;;;4205272;34;20149;-61
2021/11/17 09:48:55;;;;;;;4.20;3.28;;;;;;;;;;4205258;34;20890;-62
2021/11/17 09:51:26;;;;;;;3.00;2.70;;;;;;;;;;4205377;34;20249;-61
2021/11/17 09:53:59;;;;;;;3.40;3.10;;;;;;;;;;4205569;34;20106;-61
2021/11/17 09:56:36;;;;;;;5.80;3.37;;;;;;;;;;4191712;34;20133;-60
2021/11/17 09:59:10;;;;;;;5.95;3.28;;;;;;;;;;4190738;34;20121;-61
2021/11/17 10:01:47;;;;;;;4.30;2.97;;;;;;;;;;4203950;34;20475;-61
2021/11/17 10:04:21;;;;;;;5.50;3.42;;;;;;;;;;4179696;34;20105;-61
2021/11/17 10:09:58;;;;;;;3.50;3.15;;;;;;;;;;4194124;34;20200;-60
2021/11/17 10:12:57;;;;;;;4.40;3.60;;;;;;;;;;4193946;34;20117;-59
2021/11/17 10:15:29;;;;;;;5.00;3.47;;;;;;;;;;4194656;34;20094;-60
2021/11/17 10:17:57;;;;;;;6.15;3.55;;;;;;;;;;4201938;34;20201;-60
2021/11/17 10:20:24;;;;;;;5.25;3.67;;;;;;;;;;4203672;34;20548;-60
2021/11/17 10:23:06;;;;;;;4.22;3.55;;;;;;;;;;4203659;34;20104;-60
2021/11/17 10:25:44;;;;;;;4.32;3.65;;;;;;;;;;4204623;34;20097;-60
2021/11/17 10:28:10;;;;;;;3.53;3.20;;;;;;;;;;4204492;34;20486;-62
2021/11/17 10:31:07;;;;;;;4.07;3.08;;;;;;;;;;4204224;34;20121;-60
2021/11/17 10:33:45;;;;;;;3.58;3.28;;;;;;;;;;4199374;34;20672;-60
2021/11/17 10:36:40;;;;;;;5.25;3.70;;;;;;;;;;4196830;34;20102;-60
2021/11/17 10:39:28;;;;;;;4.50;2.90;;;;;;;;;;4203424;34;20462;-60
2021/11/17 10:41:56;;;;;;;3.33;2.70;;;;;;;;;;4204930;34;20105;-60
2021/11/17 10:44:46;;;;;;;5.20;3.03;;;;;;;;;;4201612;34;20127;-60
2021/11/17 10:47:27;;;;;;;3.20;2.90;;;;;;;;;;4204713;34;20113;-60
2021/11/17 10:50:14;;;;;;;3.47;2.62;;;;;;;;;;4204422;34;20185;-60
2021/11/17 10:52:42;;;;;;;3.58;3.00;;;;;;;;;;4204346;34;20101;-60
2021/11/17 10:55:27;;;;;;;3.35;3.05;;;;;;;;;;4204977;34;20124;-61
2021/11/17 10:57:54;;;;;;;4.55;3.10;;;;;;;;;;4204671;34;20200;-60
2021/11/17 11:00:31;;;;;;;3.95;3.25;;;;;;;;;;4204548;34;20121;-60
2021/11/17 11:02:57;;;;;;;3.97;2.95;;;;;;;;;;4204522;34;20146;-61
2021/11/17 11:05:27;;;;;;;2.97;2.60;;;;;;;;;;4191542;34;20513;-61
2021/11/17 11:08:01;;;;;;;3.67;2.87;;;;;;;;;;4166737;34;20204;-61
2021/11/17 11:10:45;;;;;;;4.65;2.62;;;;;;;;;;4190954;34;20098;-59
2021/11/17 11:13:13;;;;;;;6.18;2.80;;;;;;;;;;4190730;34;20111;-59
2021/11/17 11:15:42;;;;;;;3.00;2.47;;;;;;;;;;4189651;34;20110;-60
2021/11/17 11:18:13;;;;;;;3.60;2.70;;;;;;;;;;4155431;34;20122;-60
2021/11/17 11:20:47;;;;;;;4.35;2.70;;;;;;;;;;4190995;34;20130;-60
2021/11/17 11:23:27;;;;;;;4.07;2.70;;;;;;;;;;4190675;34;20094;-60
2021/11/17 11:25:53;;;;;;;4.82;2.50;;;;;;;;;;4190726;34;20099;-60
2021/11/17 11:28:22;;;;;;;2.87;2.53;;;;;;;;;;4189343;34;20125;-61
2021/11/17 11:31:03;;;;;;;3.15;2.85;;;;;;;;;;4189175;34;20121;-59
2021/11/17 11:33:31;;;;;;;6.43;2.72;;;;;;;;;;4189337;34;20105;-60
2021/11/17 11:36:12;;;;;;;2.58;2.37;;;;;;;;;;4189411;34;20540;-61
2021/11/17 11:38:43;;;;;;;2.83;2.20;;;;;;;;;;4189212;34;20122;-62
2021/11/17 11:41:37;;;;;;;3.05;2.50;;;;;;;;;;4165120;34;20110;-62
2021/11/17 11:44:19;;;;;;;2.80;2.30;;;;;;;;;;4188910;34;20186;-61
2021/11/17 11:46:45;;;;;;;3.65;2.00;;;;;;;;;;4188985;34;20198;-61
2021/11/17 11:49:48;;;;;;;3.20;2.30;;;;;;;;;;4190304;34;20569;-62
2021/11/17 11:52:20;;;;;;;4.03;2.45;;;;;;;;;;4190398;34;20106;-60
2021/11/17 11:54:55;;;;;;;2.30;2.10;;;;;;;;;;4190381;34;20532;-60
2021/11/17 11:57:42;;;;;;;3.22;2.70;;;;;;;;;;4189695;34;20130;-61
2021/11/17 12:00:22;;;;;;;3.30;2.60;;;;;;;;;;4190259;34;20530;-61
2021/11/17 12:02:50;;;;;;;2.85;2.42;;;;;;;;;;4190147;34;20566;-61
2021/11/17 12:05:25;;;;;;;2.92;2.20;;;;;;;;;;4190027;34;20109;-61
2021/11/17 12:08:08;;;;;;;3.80;2.47;;;;;;;;;;4190067;34;20115;-61
2021/11/17 12:10:36;;;;;;;5.97;2.53;;;;;;;;;;4190158;34;20486;-62
2021/11/17 12:13:22;;;;;;;3.67;2.70;;;;;;;;;;4190080;34;20618;-62
2021/11/17 12:16:04;;;;;;;8.75;3.28;;;;;;;;;;4195433;34;20121;-60
2021/11/17 12:18:51;;;;;;;2.90;2.40;;;;;;;;;;4203530;34;20105;-60
2021/11/17 12:21:26;;;;;;;2.37;2.17;;;;;;;;;;4202806;34;20098;-60
2021/11/17 12:24:05;;;;;;;2.72;2.30;;;;;;;;;;4203718;34;20105;-60
2021/11/17 12:26:34;;;;;;;4.28;2.40;;;;;;;;;;4203310;34;20709;-60
2021/11/17 12:29:18;;;;;;;3.20;2.62;;;;;;;;;;4203684;34;20097;-60
2021/11/17 12:32:04;;;;;;;2.80;2.50;;;;;;;;;;4190816;34;20100;-59
2021/11/17 12:34:34;;;;;;;3.08;2.78;;;;;;;;;;4191755;34;20124;-62
2021/11/17 12:37:01;;;;;;;3.85;2.67;;;;;;;;;;4203718;34;20564;-62
2021/11/17 12:39:32;;;;;;;3.58;3.10;;;;;;;;;;4203873;34;20121;-62
2021/11/17 12:42:00;;;;;;;5.40;4.18;;;;;;;;;;4203713;34;20121;-62
2021/11/17 12:44:29;;;;;;;6.93;5.32;;;;;;;;;;4203710;34;20133;-62
2021/11/17 12:47:02;;;;;;;8.23;5.40;;;;;;;;;;4203804;34;20112;-62
2021/11/17 12:49:48;;;;;;;9.52;5.40;;;;;;;;;;4203844;34;20109;-63
2021/11/17 12:52:29;;;;;;;6.32;4.87;;;;;;;;;;4190616;34;20153;-62
2021/11/17 12:54:57;;;;;;;6.55;5.15;;;;;;;;;;4190851;34;20124;-61
2021/11/17 12:57:39;;;;;;;4.37;3.60;;;;;;;;;;4190596;34;20136;-62
2021/11/17 13:00:14;;;;;;;4.82;3.40;;;;;;;;;;4191208;34;20206;-62
2021/11/17 13:02:58;;;;;;;4.20;3.80;;;;;;;;;;4203291;34;20561;-61
2021/11/17 13:05:36;;;;;;;7.50;4.18;;;;;;;;;;4203590;34;20094;-74
2021/11/17 13:08:02;;;;;;;5.07;3.83;;;;;;;;;;4190189;34;20120;-60
2021/11/17 13:10:30;;;;;;;5.65;3.62;;;;;;;;;;4191655;34;20133;-60
2021/11/17 13:13:15;;;;;;;5.82;3.58;;;;;;;;;;4191935;34;20140;-59
2021/11/17 13:16:02;;;;;;;4.37;3.65;;;;;;;;;;4191693;34;20094;-59
2021/11/17 13:18:57;;;;;;;4.05;3.00;;;;;;;;;;4191920;34;20110;-59
2021/11/17 13:21:26;;;;;;;4.10;3.58;;;;;;;;;;4184201;34;20564;-59
2021/11/17 13:24:06;;;;;;;3.97;3.58;;;;;;;;;;4190610;34;20121;-59
2021/11/17 13:26:43;;;;;;;6.43;3.70;;;;;;;;;;4177577;34;20099;-59
2021/11/17 13:29:24;;;;;;;5.65;4.10;;;;;;;;;;4177665;34;20109;-60
2021/11/17 13:31:54;;;;;;;4.87;3.42;;;;;;;;;;4190609;34;20165;-59
2021/11/17 13:34:43;;;;;;;8.57;3.95;;;;;;;;;;4190862;34;20110;-59
2021/11/17 13:37:32;;;;;;;5.78;4.50;;;;;;;;;;4178734;34;20206;-58
2021/11/17 13:39:59;;;;;;;8.95;4.43;;;;;;;;;;4191663;34;20117;-59
2021/11/17 13:42:26;;;;;;;4.95;4.10;;;;;;;;;;4191530;34;20228;-58
2021/11/17 13:44:54;;;;;;;8.40;4.57;;;;;;;;;;4191356;34;20125;-58
2021/11/17 13:47:21;;;;;;;9.02;4.85;;;;;;;;;;4178914;34;20118;-61
2021/11/17 13:49:49;;;;;;;6.00;4.62;;;;;;;;;;4178622;34;20117;-60
2021/11/17 13:52:18;;;;;;;5.43;4.65;;;;;;;;;;4191465;34;20117;-59
2021/11/17 13:54:43;;;;;;;6.70;4.70;;;;;;;;;;4191393;34;20195;-59
2021/11/17 13:57:10;;;;;;;5.65;4.45;;;;;;;;;;4191517;34;20129;-59
2021/11/17 13:59:36;;;;;;;6.80;4.43;;;;;;;;;;4178865;34;20098;-60
2021/11/17 14:02:02;;;;;;;8.18;3.90;;;;;;;;;;4191318;34;20198;-60
2021/11/17 14:04:28;;;;;;;5.75;4.10;;;;;;;;;;4191481;34;20109;-60
2021/11/17 14:06:55;;;;;;;5.60;3.37;;;;;;;;;;4199718;34;20117;-60
2021/11/17 14:09:21;;;;;;;6.20;4.03;;;;;;;;;;4205150;34;20184;-61
2021/11/17 14:11:47;;;;;;;4.25;3.25;;;;;;;;;;4204974;34;20478;-60
2021/11/17 14:14:13;;;;;;;4.47;3.45;;;;;;;;;;4205070;34;20109;-61
2021/11/17 14:16:39;;;;;;;5.68;3.70;;;;;;;;;;4204899;34;20173;-61
2021/11/17 14:19:05;;;;;;;5.47;3.83;;;;;;;;;;4204903;34;20133;-60
2021/11/17 14:21:31;;;;;;;6.35;3.92;;;;;;;;;;4204486;34;20121;-61
2021/11/17 14:23:57;;;;;;;7.18;3.97;;;;;;;;;;4204940;34;20137;-62
2021/11/17 14:26:23;;;;;;;5.80;3.80;;;;;;;;;;4204930;34;20112;-61
2021/11/17 14:28:52;;;;;;;8.48;4.43;;;;;;;;;;4191954;34;20646;-60
2021/11/17 14:31:42;;;;;;;5.40;4.05;;;;;;;;;;4204818;34;20117;-61
2021/11/17 14:34:08;;;;;;;6.47;3.95;;;;;;;;;;4186190;34;20102;-61
2021/11/17 14:36:36;;;;;;;7.10;4.05;;;;;;;;;;4204928;34;20495;-61
2021/11/17 14:39:04;;;;;;;5.45;4.25;;;;;;;;;;4204841;34;20193;-61
2021/11/17 14:41:31;;;;;;;8.43;4.20;;;;;;;;;;4204598;34;20117;-60
2021/11/17 14:43:56;;;;;;;4.35;3.72;;;;;;;;;;4204763;34;20124;-61
2021/11/17 14:46:22;;;;;;;5.93;3.78;;;;;;;;;;4204829;34;20129;-60
2021/11/17 14:48:48;;;;;;;6.80;3.70;;;;;;;;;;4204894;34;20231;-61
2021/11/17 14:51:14;;;;;;;4.95;3.62;;;;;;;;;;4204714;34;20125;-61
2021/11/17 14:53:42;;;;;;;4.22;3.42;;;;;;;;;;4204966;34;20598;-59
2021/11/17 14:56:09;;;;;;;4.82;3.10;;;;;;;;;;4180728;34;20141;-60
2021/11/17 14:58:35;;;;;;;8.07;4.37;;;;;;;;;;4191529;34;20195;-59
2021/11/17 15:01:04;;;;;;;6.50;4.28;;;;;;;;;;4204569;34;20213;-61
2021/11/17 15:03:30;;;;;;;6.35;5.15;;;;;;;;;;4204473;34;20600;-61
2021/11/17 15:05:55;;;;;;;5.25;4.10;;;;;;;;;;4204501;34;20129;-61
2021/11/17 15:08:21;;;;;;;4.55;3.87;;;;;;;;;;4204708;34;20654;-60
2021/11/17 15:10:47;;;;;;;4.12;3.58;;;;;;;;;;4204689;34;20089;-61
2021/11/17 15:13:14;;;;;;;5.45;3.35;;;;;;;;;;4191663;34;20137;-60
2021/11/17 15:15:42;;;;;;;4.85;3.67;;;;;;;;;;4204515;34;20106;-60
2021/11/17 15:18:07;;;;;;;6.07;3.58;;;;;;;;;;4204367;34;20580;-61
2021/11/17 15:20:34;;;;;;;3.87;2.85;;;;;;;;;;4204522;34;20112;-60
2021/11/17 15:23:00;;;;;;;4.00;3.60;;;;;;;;;;4204429;34;20110;-61
2021/11/17 15:25:34;;;;;;;3.92;3.12;;;;;;;;;;4204452;34;20094;-61
2021/11/17 15:28:22;;;;;;;4.35;2.72;;;;;;;;;;4192330;34;20101;-61
2021/11/17 15:30:54;;;;;;;2.40;2.20;;;;;;;;;;4203823;34;20143;-61
2021/11/17 15:33:20;;;;;;;3.03;2.45;;;;;;;;;;4203813;34;20125;-61
2021/11/17 15:35:46;;;;;;;5.70;3.05;;;;;;;;;;4204254;34;20129;-61
2021/11/17 15:38:12;;;;;;;3.58;2.83;;;;;;;;;;4204613;34;20125;-61
2021/11/17 15:40:44;;;;;;;3.20;2.40;;;;;;;;;;4204601;34;20121;-60
2021/11/17 15:43:10;;;;;;;2.35;2.08;;;;;;;;;;4204390;34;20129;-64
2021/11/17 15:45:36;;;;;;;5.30;2.65;;;;;;;;;;4204316;34;20534;-61
2021/11/17 15:48:02;;;;;;;2.33;2.12;;;;;;;;;;4204324;34;20530;-61
2021/11/17 15:50:39;;;;;;;2.87;2.58;;;;;;;;;;4204396;34;20857;-61
2021/11/17 15:53:05;;;;;;;3.58;2.53;;;;;;;;;;4204566;34;20133;-60
2021/11/17 15:55:32;;;;;;;2.50;2.30;;;;;;;;;;4204591;34;20197;-61
2021/11/17 15:57:57;;;;;;;7.82;5.32;;;;;;;;;;4179791;34;20124;-62
2021/11/17 16:00:24;;;;;;;4.62;3.65;;;;;;;;;;4204465;34;20200;-61
2021/11/17 16:02:50;;;;;;;2.92;2.62;;;;;;;;;;4204217;34;20182;-62
2021/11/17 16:05:16;;;;;;;2.72;2.37;;;;;;;;;;4204139;34;20113;-62
2021/11/17 16:07:42;;;;;;;2.65;2.10;;;;;;;;;;4204130;34;20085;-61
2021/11/17 16:10:09;;;;;;;4.30;2.83;;;;;;;;;;4204150;34;20125;-62
2021/11/17 16:12:36;;;;;;;3.17;2.87;;;;;;;;;;4204201;34;20113;-61
2021/11/17 16:15:04;;;;;;;2.70;2.42;;;;;;;;;;4204191;34;20762;-60
2021/11/17 16:17:32;;;;;;;3.10;2.80;;;;;;;;;;4204089;34;20119;-61
2021/11/17 16:19:58;;;;;;;3.20;2.50;;;;;;;;;;4204061;34;20097;-61
2021/11/17 16:22:28;;;;;;;5.30;2.70;;;;;;;;;;4203854;34;20117;-61
2021/11/17 16:27:39;;;;;;;3.53;2.92;;;;;;;;;;4192881;34;20184;-60
2021/11/17 16:30:06;;;;;;;6.12;3.22;;;;;;;;;;4204122;34;20188;-60
2021/11/17 16:32:32;;;;;;;3.50;3.20;;;;;;;;;;4190903;34;20098;-60
2021/11/17 16:34:58;;;;;;;5.22;2.90;;;;;;;;;;4203802;34;20113;-60
2021/11/17 16:37:24;;;;;;;4.10;3.70;;;;;;;;;;4203740;34;20193;-60
2021/11/17 16:39:50;;;;;;;4.53;3.72;;;;;;;;;;4203730;34;20135;-61
2021/11/17 16:42:16;;;;;;;5.07;3.35;;;;;;;;;;4203709;34;20134;-60
2021/11/17 16:44:42;;;;;;;4.37;3.58;;;;;;;;;;4205633;34;20117;-60
2021/11/17 16:47:09;;;;;;;3.67;3.22;;;;;;;;;;4206095;34;20101;-61
2021/11/17 16:49:34;;;;;;;3.22;2.90;;;;;;;;;;4206226;34;20117;-61
2021/11/17 16:52:14;;;;;;;4.95;3.60;;;;;;;;;;4205864;34;20156;-61
2021/11/17 16:54:42;;;;;;;4.85;3.90;;;;;;;;;;4205873;34;20205;-59
2021/11/17 16:57:08;;;;;;;5.80;4.03;;;;;;;;;;4205836;34;20144;-60
2021/11/17 16:59:35;;;;;;;4.30;3.60;;;;;;;;;;4205737;34;20100;-60
2021/11/17 17:02:00;;;;;;;4.82;3.58;;;;;;;;;;4206028;34;20102;-60
2021/11/17 17:04:26;;;;;;;4.85;4.35;;;;;;;;;;4192846;34;20206;-61
2021/11/17 17:06:53;;;;;;;5.25;4.20;;;;;;;;;;4205637;34;20098;-60
2021/11/17 17:09:18;;;;;;;5.82;4.90;;;;;;;;;;4206104;34;20205;-60
2021/11/17 17:11:44;;;;;;;5.55;4.80;;;;;;;;;;4205845;34;20185;-59
2021/11/17 17:14:10;;;;;;;7.80;5.70;;;;;;;;;;4205913;34;20213;-60
2021/11/17 17:16:36;;;;;;;6.78;6.07;;;;;;;;;;4181378;34;20137;-60
2021/11/17 17:19:02;;;;;;;10.35;6.93;;;;;;;;;;4205979;34;20148;-59
2021/11/17 17:21:28;;;;;;;9.30;7.22;;;;;;;;;;4205908;34;20126;-60
2021/11/17 17:23:54;;;;;;;9.38;7.12;;;;;;;;;;4205764;34;20184;-59
2021/11/17 17:26:22;;;;;;;9.30;6.68;;;;;;;;;;4205472;34;20197;-59
2021/11/17 17:28:49;;;;;;;6.95;5.68;;;;;;;;;;4205546;34;20204;-60
2021/11/17 17:31:18;;;;;;;8.00;6.30;;;;;;;;;;4205502;34;20201;-58
2021/11/17 17:33:45;;;;;;;7.55;6.12;;;;;;;;;;4205679;34;20114;-60
2021/11/17 17:36:11;;;;;;;7.85;6.45;;;;;;;;;;4205494;34;20128;-60
2021/11/17 17:38:37;;;;;;;9.90;6.50;;;;;;;;;;4192659;34;20129;-61
2021/11/17 17:41:04;;;;;;;9.05;6.10;;;;;;;;;;4205707;34;20097;-61
2021/11/17 17:43:30;;;;;;;8.45;5.20;;;;;;;;;;4205618;34;20145;-62
2021/11/17 17:45:56;;;;;;;6.82;4.93;;;;;;;;;;4205654;34;20121;-62
2021/11/17 17:48:22;;;;;;;6.82;5.75;;;;;;;;;;4205554;34;20117;-62